• Join FlightAware (Why Join?)
  • Login
  • US Flag 
03:13AM EDT


 

Airport Tracker/Info


-or-


 

Live Flight TrackerFlight Track Log ✈ SWA3206 ✈ 12-May-2013 ✈ KPHX - KBWI

Flight Track Log - Related Links

Times and Time Zones

All times are in EDT time to prevent confusion due to time zone crossing. See the SWA3206 flight status page for this flight to view local times or setup timezone preferences in your user account.

Time Position Orientation Groundspeed Altitude Reporting Facility
EDT Latitude Longitude Course Direction KTS MPH feet Rate Location/Type
08:44PM 33.4333 -112.1333 270° West 216 249 4,300  Level Phoenix TRACON
08:45PM 33.4467 -112.1844 287° West 242 278 6,200 2,640 Climbing Albuquerque Center
08:46PM 33.5192 -112.1850 360° North 277 319 9,200 2,880 Climbing Albuquerque Center
08:47PM 33.5703 -112.1228 45° Northeast 303 349 12,200 2,880 Climbing Albuquerque Center
08:48PM 33.5869 -112.0111 80° East 336 387 15,100 2,880 Climbing Albuquerque Center
08:49PM 33.6028 -111.8953 81° East 350 403 18,200 3,120 Climbing Albuquerque Center
08:50PM 33.6192 -111.7781 80° East 358 412 21,500 2,700 Climbing Albuquerque Center
08:51PM 33.6361 -111.6594 80° East 363 418 23,700 2,220 Climbing Albuquerque Center
08:52PM 33.6561 -111.5083 81° East 380 437 26,100 2,220 Climbing Albuquerque Center
08:53PM 33.6733 -111.3781 81° East 393 452 28,300 2,400 Climbing Albuquerque Center
08:54PM 33.6936 -111.2522 79° East 389 448 31,100 2,460 Climbing Albuquerque Center
08:55PM 33.7350 -111.1394 66° East 374 430 33,400 1,860 Climbing Albuquerque Center
08:56PM 33.7733 -111.0281 67° East 366 421 35,000 780 Climbing Albuquerque Center
08:57PM 33.8142 -110.9136 67° East 370 426 35,000  Level Albuquerque Center
08:58PM 33.8547 -110.7986 67° East 374 430 35,000  Level Albuquerque Center
08:59PM 33.9036 -110.6614 67° East 374 430 35,000  Level Albuquerque Center
09:00PM 33.9453 -110.5467 66° East 375 432 35,000  Level Albuquerque Center
09:01PM 33.9839 -110.4317 68° East 374 430 35,000  Level Albuquerque Center
09:02PM 34.0228 -110.3256 66° East 374 430 35,000  Level Albuquerque Center
09:03PM 34.0714 -110.1878 67° East 375 432 35,000  Level Albuquerque Center
09:04PM 34.1133 -110.0653 68° East 377 434 35,000  Level Albuquerque Center
09:05PM 34.1514 -109.9578 67° East 371 427 35,000  Level Albuquerque Center
09:06PM 34.1897 -109.8475 67° East 370 426 35,000  Level Albuquerque Center
09:07PM 34.2339 -109.7167 68° East 375 432 35,000  Level Albuquerque Center
09:08PM 34.2728 -109.6061 67° East 375 432 35,000  Level Albuquerque Center
09:09PM 34.3161 -109.4778 68° East 373 429 35,000  Level Albuquerque Center
09:10PM 34.3542 -109.3661 68° East 374 430 35,000  Level Albuquerque Center
09:11PM 34.3922 -109.2567 67° East 371 427 35,000  Level Albuquerque Center
09:12PM 34.4361 -109.1269 68° East 373 429 35,000  Level Albuquerque Center
09:13PM 34.4736 -109.0167 68° East 371 427 35,000  Level Albuquerque Center
09:14PM 34.5106 -108.9064 68° East 371 427 35,000  Level Albuquerque Center
09:15PM 34.5547 -108.7769 67° East 371 427 35,000  Level Albuquerque Center
09:16PM 34.5922 -108.6625 68° East 375 432 35,000  Level Albuquerque Center
09:17PM 34.6361 -108.5336 67° East 372 428 35,000  Level Albuquerque Center
09:18PM 34.6700 -108.4269 69° East 372 428 35,000  Level Albuquerque Center
09:19PM 34.7092 -108.3089 68° East 375 432 35,000  Level Albuquerque Center
09:20PM 34.7475 -108.1908 68° East 376 433 35,000  Level Albuquerque Center
09:21PM 34.7881 -108.0736 67° East 376 433 35,000  Level Albuquerque Center
09:22PM 34.8256 -107.9544 69° East 377 434 35,000  Level Albuquerque Center
09:23PM 34.8708 -107.8186 68° East 377 434 35,000  Level Albuquerque Center
09:25PM 34.9103 -107.6936 69° East 377 434 35,000  Level Albuquerque Center
09:26PM 34.9486 -107.5758 68° East 375 432 35,000  Level Albuquerque Center
09:27PM 34.9869 -107.4561 69° East 378 435 35,000  Level Albuquerque Center
09:28PM 35.0247 -107.3375 69° East 376 433 35,000  Level Albuquerque Center
09:29PM 35.0622 -107.2186 69° East 375 432 35,000  Level Albuquerque Center
09:30PM 35.1014 -107.0983 68° East 380 437 35,000  Level Albuquerque Center
09:31PM 35.1419 -106.9661 69° East 374 430 35,000  Level Albuquerque Center
09:32PM 35.1783 -106.8544 68° East 372 428 35,000  Level Albuquerque Center
09:33PM 35.2150 -106.7394 69° East 377 434 35,000  Level Albuquerque Center
09:34PM 35.2567 -106.6058 69° East 378 435 35,000  Level Albuquerque Center
09:35PM 35.2914 -106.4900 70° East 383 441 35,000  Level Albuquerque Center
09:36PM 35.3292 -106.3697 69° East 378 435 35,000  Level Albuquerque Center
09:37PM 35.3656 -106.2489 70° East 378 435 35,000  Level Albuquerque Center
09:38PM 35.4042 -106.1283 69° East 379 436 35,000  Level Albuquerque Center
09:39PM 35.4400 -106.0094 70° East 375 432 35,000  Level Albuquerque Center
09:40PM 35.4803 -105.8761 70° East 371 427 35,000  Level Albuquerque Center
09:41PM 35.5164 -105.7550 70° East 372 428 35,000  Level Albuquerque Center
09:42PM 35.5539 -105.6336 69° East 375 432 35,000  Level Albuquerque Center
09:43PM 35.5892 -105.5125 70° East 375 432 35,000  Level Albuquerque Center
09:44PM 35.6219 -105.3950 71° East 365 420 35,000  Level Albuquerque Center
09:45PM 35.6619 -105.2703 68° East 380 437 35,000  Level Albuquerque Center
09:46PM 35.6978 -105.1469 70° East 379 436 35,000  Level Albuquerque Center
09:47PM 35.7325 -105.0253 71° East 374 430 35,000  Level Albuquerque Center
09:48PM 35.7692 -104.9008 70° East 380 437 35,000  Level Albuquerque Center
09:49PM 35.8069 -104.7775 69° East 381 438 35,000  Level Albuquerque Center
09:50PM 35.8422 -104.6528 71° East 380 437 35,000  Level Albuquerque Center
09:51PM 35.8789 -104.5272 70° East 383 441 35,000  Level Albuquerque Center
09:52PM 35.9147 -104.4014 71° East 384 442 35,000  Level Albuquerque Center
09:53PM 35.9514 -104.2772 70° East 381 438 35,000  Level Albuquerque Center
09:54PM 35.9867 -104.1531 71° East 380 437 35,000  Level Albuquerque Center
09:55PM 36.0228 -104.0264 71° East 384 442 35,000  Level Albuquerque Center
09:56PM 36.0578 -103.9006 71° East 384 442 35,000  Level Albuquerque Center
09:57PM 36.0997 -103.7544 70° East 383 441 35,000  Level Albuquerque Center
09:58PM 36.1361 -103.6292 70° East 383 441 35,000  Level Albuquerque Center
09:59PM 36.1719 -103.5036 70° East 383 441 35,000  Level Albuquerque Center
10:00PM 36.2081 -103.3742 71° East 390 449 35,000  Level Albuquerque Center
10:01PM 36.2439 -103.2436 71° East 395 455 35,000  Level Albuquerque Center
10:02PM 36.2775 -103.1125 72° East 395 455 35,000  Level Albuquerque Center
10:03PM 36.3128 -102.9833 71° East 394 453 35,000  Level Albuquerque Center
10:04PM 36.3483 -102.8569 71° East 394 453 35,000  Level Albuquerque Center
10:05PM 36.3828 -102.7289 71° East 392 451 35,000  Level Albuquerque Center
10:06PM 36.4175 -102.5994 72° East 393 452 35,000  Level Albuquerque Center
10:07PM 36.4533 -102.4711 71° East 394 453 35,000  Level Albuquerque Center
10:08PM 36.4872 -102.3419 72° East 393 452 35,000  Level Albuquerque Center
10:09PM 36.5211 -102.2128 72° East 393 452 35,000  Level Albuquerque Center
10:10PM 36.5558 -102.0836 71° East 394 453 35,000  Level Albuquerque Center
10:11PM 36.5950 -101.9347 72° East 392 451 35,000  Level Albuquerque Center
10:12PM 36.6272 -101.8106 72° East 393 452 35,000  Level Albuquerque Center
10:13PM 36.6594 -101.6861 72° East 394 453 35,000  Level Albuquerque Center
10:14PM 36.6975 -101.5411 72° East 395 455 35,000  Level Albuquerque Center
10:15PM 36.7289 -101.4175 72° East 393 452 35,000  Level Albuquerque Center
10:16PM 36.7667 -101.2733 72° East 393 452 35,000  Level Albuquerque Center
10:17PM 36.7725 -101.2539 69° East 392 451 35,000  Level Kansas City Center
10:18PM 36.8097 -101.1078 72° East 396 456 35,000  Level Kansas City Center
10:19PM 36.8417 -100.9800 73° East 401 461 35,000  Level Kansas City Center
10:20PM 36.8736 -100.8536 72° East 401 461 35,000  Level Kansas City Center
10:21PM 36.9100 -100.7067 73° East 399 459 35,000  Level Kansas City Center
10:22PM 36.9414 -100.5806 73° East 400 460 35,000  Level Kansas City Center
10:23PM 36.9772 -100.4353 73° East 395 455 35,000  Level Kansas City Center
10:24PM 37.0086 -100.3111 72° East 393 452 35,000  Level Kansas City Center
10:25PM 37.0442 -100.1650 73° East 394 453 35,000  Level Kansas City Center
10:26PM 37.0750 -100.0397 73° East 395 455 35,000  Level Kansas City Center
10:27PM 37.1050 -99.9125 73° East 397 457 35,000  Level Kansas City Center
10:28PM 37.1411 -99.7653 73° East 398 458 35,000  Level Kansas City Center
10:29PM 37.1711 -99.6375 74° East 399 459 35,000  Level Kansas City Center
10:30PM 37.2075 -99.4892 73° East 401 461 35,000  Level Kansas City Center
10:31PM 37.2383 -99.3578 74° East 399 459 35,000  Level Kansas City Center
10:32PM 37.2694 -99.2267 73° East 396 456 35,000  Level Kansas City Center
10:33PM 37.3011 -99.0939 73° East 395 455 35,000  Level Kansas City Center
10:34PM 37.3333 -98.9572 73° East 399 459 35,000  Level Kansas City Center
10:35PM 37.3656 -98.8211 73° East 403 464 35,000  Level Kansas City Center
10:36PM 37.3947 -98.6875 75° East 400 460 35,000  Level Kansas City Center
10:37PM 37.4261 -98.5522 74° East 403 464 35,000  Level Kansas City Center
10:38PM 37.4569 -98.4164 74° East 404 465 35,000  Level Kansas City Center
10:39PM 37.4875 -98.2814 74° East 405 466 35,000  Level Kansas City Center
10:40PM 37.5186 -98.1472 74° East 402 463 35,000  Level Kansas City Center
10:41PM 37.5489 -98.0122 74° East 403 464 35,000  Level Kansas City Center
10:42PM 37.5844 -97.8514 74° East 402 463 35,000  Level Kansas City Center
10:43PM 37.6150 -97.7172 74° East 403 464 35,000  Level Kansas City Center
10:44PM 37.6394 -97.5975 76° East 397 457 35,000  Level Kansas City Center
10:45PM 37.6719 -97.4519 74° East 397 457 35,000  Level Kansas City Center
10:46PM 37.7028 -97.3164 74° East 403 464 35,000  Level Kansas City Center
10:47PM 37.7322 -97.1817 75° East 399 459 35,000  Level Kansas City Center
10:48PM 37.7608 -97.0458 75° East 400 460 35,000  Level Kansas City Center
10:49PM 37.7900 -96.9119 75° East 398 458 35,000  Level Kansas City Center
10:50PM 37.8194 -96.7733 75° East 398 458 35,000  Level Kansas City Center
10:51PM 37.8525 -96.6144 75° East 400 460 35,000  Level Kansas City Center
10:52PM 37.8978 -96.4922 65° Northeast 385 443 35,000  Level Kansas City Center
10:53PM 37.9622 -96.3894 51° Northeast 374 430 35,000  Level Kansas City Center
10:54PM 38.0258 -96.2847 52° Northeast 375 432 35,000  Level Kansas City Center
10:55PM 38.0903 -96.1808 52° Northeast 376 433 35,000  Level Kansas City Center
10:56PM 38.1514 -96.0803 52° Northeast 366 421 35,000  Level Kansas City Center
10:57PM 38.2225 -95.9633 52° Northeast 372 428 35,000  Level Kansas City Center
10:58PM 38.2833 -95.8636 52° Northeast 374 430 35,000  Level Kansas City Center
11:00PM 38.3450 -95.7639 52° Northeast 375 432 35,000  Level Kansas City Center
11:01PM 38.4153 -95.6483 52° Northeast 369 425 35,000  Level Kansas City Center
11:02PM 38.4747 -95.5486 53° Northeast 370 426 35,000  Level Kansas City Center
11:03PM 38.5094 -95.4019 73° East 407 468 35,000  Level Kansas City Center
11:04PM 38.5311 -95.2725 78° East 395 455 35,000  Level Kansas City Center
11:05PM 38.5528 -95.1439 78° East 391 450 35,000  Level Kansas City Center
11:06PM 38.5778 -94.9906 78° East 394 453 35,000  Level Kansas City Center
11:07PM 38.6000 -94.8592 78° East 396 456 35,000  Level Kansas City Center
11:08PM 38.6211 -94.7264 78° East 397 457 35,000  Level Kansas City Center
11:09PM 38.6472 -94.5722 78° East 398 458 35,000  Level Kansas City Center
11:10PM 38.6672 -94.4417 79° East 395 455 35,000  Level Kansas City Center
11:11PM 38.6917 -94.2903 78° East 390 449 35,000  Level Kansas City Center
11:12PM 38.7117 -94.1608 79° East 389 448 35,000  Level Kansas City Center
11:13PM 38.7322 -94.0297 79° East 391 450 35,000  Level Kansas City Center
11:14PM 38.7564 -93.8778 78° East 391 450 35,000  Level Kansas City Center
11:15PM 38.7769 -93.7417 79° East 392 451 35,000 360 Level Kansas City Center
11:16PM 38.7961 -93.6181 79° East 391 450 35,800 840 Climbing Kansas City Center
11:17PM 38.8181 -93.4797 78° East 393 452 36,800 540 Climbing Kansas City Center
11:18PM 38.8411 -93.3314 79° East 408 470 37,000 60 Climbing Kansas City Center
11:19PM 38.8625 -93.1833 79° East 418 481 37,000  Level Kansas City Center
11:20PM 38.8842 -93.0350 79° East 420 483 37,000  Level Kansas City Center
11:21PM 38.9061 -92.8881 79° East 418 481 37,000  Level Kansas City Center
11:22PM 38.9272 -92.7397 80° East 420 483 37,000  Level Kansas City Center
11:23PM 38.9483 -92.5903 80° East 420 483 37,000  Level Kansas City Center
11:24PM 38.9697 -92.4397 80° East 424 488 37,000  Level Kansas City Center
11:25PM 38.9906 -92.2875 80° East 427 491 37,000 360 Level Kansas City Center
11:26PM 39.0178 -92.1039 79° East 429 494 37,800 660 Climbing Kansas City Center
11:27PM 39.0386 -91.9431 80° East 442 509 38,400 540 Climbing Kansas City Center
11:28PM 39.0608 -91.7778 80° East 459 528 39,000 240 Climbing Kansas City Center
11:29PM 39.0781 -91.6436 81° East 463 533 39,000  Level Kansas City Center
11:30PM 39.1022 -91.4772 79° East 468 539 39,000  Level Kansas City Center
11:31PM 39.1283 -91.2806 80° East 468 539 39,000  Level Kansas City Center
11:32PM 39.1494 -91.1156 81° East 467 537 39,000  Level Kansas City Center
11:33PM 39.1708 -90.9497 81° East 468 539 39,000  Level Kansas City Center
11:34PM 39.1925 -90.7847 80° East 467 537 39,000  Level Kansas City Center
11:35PM 39.2133 -90.6183 81° East 467 537 39,000  Level Kansas City Center
11:36PM 39.2344 -90.4494 81° East 472 543 39,000  Level Kansas City Center
11:37PM 39.2550 -90.2792 81° East 476 548 39,000  Level Kansas City Center
11:38PM 39.2756 -90.1083 81° East 479 551 39,000  Level Kansas City Center
11:39PM 39.2961 -89.9378 81° East 480 552 39,000  Level Kansas City Center
11:40PM 39.3161 -89.7664 81° East 481 554 39,000  Level Kansas City Center
11:41PM 39.3361 -89.5958 81° East 481 554 39,000  Level Kansas City Center
11:42PM 39.3558 -89.4244 81° East 482 555 39,000  Level Kansas City Center
11:43PM 39.3747 -89.2528 82° East 483 556 39,000  Level Kansas City Center
11:44PM 39.3953 -89.0806 81° East 484 557 39,000  Level Kansas City Center
11:45PM 39.4158 -88.8894 82° East 485 558 39,000  Level Kansas City Center
11:46PM 39.4356 -88.7169 82° East 487 560 39,000  Level Kansas City Center
11:47PM 39.4528 -88.5542 82° East 482 555 39,000  Level Kansas City Center
11:48PM 39.4703 -88.3825 82° East 480 552 39,000  Level Kansas City Center
11:49PM 39.4903 -88.2058 82° East 486 559 39,000  Level Kansas City Center
11:50PM 39.5092 -88.0308 82° East 488 562 39,000  Level Kansas City Center
11:51PM 39.5261 -87.8569 83° East 486 559 39,000  Level Kansas City Center
11:52PM 39.5319 -87.7858 84° East 483 556 39,000  Level Indianapolis Center
11:53PM 39.5492 -87.6128 83° East 487 560 39,000  Level Indianapolis Center
11:54PM 39.5658 -87.4389 83° East 489 563 39,000  Level Indianapolis Center
11:55PM 39.5839 -87.2658 82° East 487 560 39,000  Level Indianapolis Center
11:56PM 39.5997 -87.0883 83° East 492 566 39,000  Level Indianapolis Center
11:57PM 39.6161 -86.9133 83° East 494 568 39,000  Level Indianapolis Center
11:58PM 39.6328 -86.7375 83° East 495 570 39,000  Level Indianapolis Center
11:59PM 39.6481 -86.5608 84° East 497 572 39,000  Level Indianapolis Center
12:00AM 39.6644 -86.3847 83° East 499 574 39,000  Level Indianapolis Center
12:01AM 39.6797 -86.1931 84° East 497 572 39,000  Level Indianapolis Center
12:02AM 39.6936 -86.0425 83° East 495 570 39,000  Level Indianapolis Center
12:03AM 39.7078 -85.8656 84° East 496 571 39,000  Level Indianapolis Center
12:04AM 39.7256 -85.6503 84° East 501 577 39,000  Level Indianapolis Center
12:05AM 39.7397 -85.4711 84° East 502 578 39,000  Level Indianapolis Center
12:06AM 39.7547 -85.2914 84° East 502 578 39,000  Level Indianapolis Center
12:07AM 39.7606 -85.1097 88° East 506 582 39,000  Level Indianapolis Center
12:08AM 39.7539 -84.9269 93° East 508 585 39,000  Level Indianapolis Center
12:09AM 39.7503 -84.7628 92° East 509 586 39,000  Level Indianapolis Center
12:10AM 39.7458 -84.5783 92° East 509 586 39,000  Level Indianapolis Center
12:11AM 39.7414 -84.3931 92° East 510 587 39,000  Level Indianapolis Center
12:12AM 39.7367 -84.2094 92° East 507 583 39,000  Level Indianapolis Center
12:13AM 39.7311 -84.0258 92° East 506 582 39,000  Level Indianapolis Center
12:14AM 39.7250 -83.8428 92° East 505 581 39,000  Level Indianapolis Center
12:15AM 39.7194 -83.6594 92° East 507 583 39,000  Level Indianapolis Center
12:16AM 39.7147 -83.4775 92° East 512 589 39,000  Level Indianapolis Center
12:17AM 39.7083 -83.2972 93° East 508 585 39,000  Level Indianapolis Center
12:18AM 39.7008 -83.1139 93° East 509 586 39,000  Level Indianapolis Center
12:19AM 39.6939 -82.9294 93° East 509 586 39,000  Level Indianapolis Center
12:20AM 39.6864 -82.7439 93° East 509 586 39,000  Level Indianapolis Center
12:21AM 39.6786 -82.5572 93° East 514 592 39,000  Level Indianapolis Center
12:22AM 39.6697 -82.3708 93° East 514 592 39,000  Level Indianapolis Center
12:23AM 39.6628 -82.1828 93° East 516 594 39,000  Level Indianapolis Center
12:24AM 39.6544 -82.0086 94° East 517 595 39,000  Level Indianapolis Center
12:25AM 39.6461 -81.8219 93° East 516 594 39,000  Level Indianapolis Center
12:26AM 39.6364 -81.6344 94° East 518 596 39,000  Level Indianapolis Center
12:27AM 39.6261 -81.4467 94° East 519 597 39,000  Level Indianapolis Center
12:28AM 39.6172 -81.2597 93° East 518 596 39,000  Level Indianapolis Center
12:29AM 39.6061 -81.0717 94° East 520 598 39,000  Level Indianapolis Center
12:30AM 39.5967 -80.8833 94° East 521 600 39,000  Level Indianapolis Center
12:31AM 39.5850 -80.6961 95° East 520 598 39,000  Level Indianapolis Center
12:32AM 39.5747 -80.5108 94° East 516 594 39,000  Level Indianapolis Center
12:32AM 39.5644 -80.3806 96° East 521 600 39,000  Level Washington Center
12:33AM 39.5486 -80.1992 96° East 521 600 39,000  Level Washington Center
12:34AM 39.5325 -80.0153 96° East 521 600 39,000  Level Washington Center
12:35AM 39.5161 -79.8339 97° East 521 600 39,000  Level Washington Center
12:36AM 39.4994 -79.6500 97° East 521 600 39,000  Level Washington Center
12:37AM 39.4806 -79.4689 98° East 521 600 39,000 -600 Level Washington Center
12:38AM 39.4597 -79.2633 97° East 521 600 37,900 -1,080 Descending Washington Center
12:39AM 39.4403 -79.0742 98° East 528 608 36,900 -2,280 Descending Washington Center
12:40AM 39.4208 -78.8825 97° East 528 608 33,500 -3,180 Descending Washington Center
12:41AM 39.4008 -78.6911 98° East 533 613 30,600 -2,880 Descending Washington Center
12:42AM 39.3825 -78.5103 97° East 527 606 27,700 -3,000 Descending Washington Center
12:43AM 39.3639 -78.3269 97° East 520 598 24,500 -3,060 Descending Washington Center
12:44AM 39.3447 -78.1544 98° East 504 580 21,700 -2,760 Descending Washington Center
12:45AM 39.3253 -77.9875 99° East 483 556 19,100 -2,640 Descending Washington Center
12:46AM 39.3094 -77.8286 97° East 461 531 16,500 -2,580 Descending Washington Center
12:47AM 39.2892 -77.6778 100° East 437 503 13,900 -2,580 Descending Washington Center
12:48AM 39.2750 -77.5328 97° East 421 484 11,300 -1,560 Descending Washington Center
12:49AM 39.2622 -77.4144 98° East 398 458 10,800 -1,080 Descending Washington Center
12:50AM 39.2472 -77.3014 100° East 356 410 9,200 -1,920 Descending Washington Center
12:51AM 39.2500 -77.2667 84° East 330 380 8,400 -2,160 Descending Potomac TRACON
12:52AM 39.2333 -77.1500 100° East 309 356 6,500 -1,920 Descending Potomac TRACON
12:52AM 39.2167 -77.0667 104° East 303 349 5,000 -1,620 Descending Potomac TRACON
12:53AM 39.2000 -76.9667 102° East 297 342 3,600 -1,020 Descending Potomac TRACON
12:54AM 39.1500 -76.9000 134° Southeast 289 333 3,000 -360 Descending Potomac TRACON
12:55AM 39.1000 -76.8167 128° Southeast 265 305 2,900 -600 Descending Potomac TRACON
12:56AM 39.0667 -76.7500 123° Southeast 247 284 1,900 -720 Descending Potomac TRACON
12:57AM 39.0667 -76.6833 90° East 214 246 1,500 -240 Descending Potomac TRACON
12:58AM 39.0833 -76.6333 67° East 177 204 1,500 -180 Level Potomac TRACON
12:59AM 39.1167 -76.6000 38° Northeast 159 183 1,200 -360 Descending Potomac TRACON
01:00AM 39.1333 -76.6333 303° West 118 136 800 -420 Descending Potomac TRACON
01:02AM 39.1667 -76.6667 343° North  Level FlightAware Approximate
01:09AM 39.1754 -76.6683 343° North  Level Estimated
01:10AM 39.1754 -76.6683 343° North  Level Estimated